createdAt,value
2022-09-26T00:01:08.104Z,12.10
2022-09-26T00:03:36.538Z,12.10
2022-09-26T00:06:06.829Z,12.00
2022-09-26T00:08:35.061Z,12.00
2022-09-26T00:11:04.115Z,11.90
2022-09-26T00:13:32.753Z,11.90
2022-09-26T00:16:00.766Z,11.90
2022-09-26T00:18:28.814Z,12.00
2022-09-26T00:21:05.042Z,11.80
2022-09-26T00:23:33.085Z,11.80
2022-09-26T00:26:01.163Z,11.80
2022-09-26T00:28:29.412Z,11.70
2022-09-26T00:30:57.722Z,11.60
2022-09-26T00:33:25.997Z,11.50
2022-09-26T00:35:54.329Z,11.50
2022-09-26T00:38:23.736Z,11.40
2022-09-26T00:40:51.942Z,11.40
2022-09-26T00:43:30.375Z,11.20
2022-09-26T00:46:00.315Z,11.20
2022-09-26T00:48:28.458Z,11.20
2022-09-26T00:50:56.828Z,11.20
2022-09-26T00:53:28.637Z,11.20
2022-09-26T00:55:59.021Z,11.10
2022-09-26T00:58:29.017Z,11.10
2022-09-26T01:00:57.262Z,11.10
2022-09-26T01:03:25.415Z,11.10
2022-09-26T01:05:53.425Z,11.10
2022-09-26T01:08:23.263Z,11.00
2022-09-26T01:10:53.182Z,11.00
2022-09-26T01:13:22.074Z,11.00
2022-09-26T01:15:50.104Z,11.10
2022-09-26T01:18:18.144Z,11.10
2022-09-26T01:20:49.905Z,11.10
2022-09-26T01:23:29.326Z,11.10
2022-09-26T01:26:26.902Z,11.00
2022-09-26T01:29:28.514Z,11.00
2022-09-26T01:32:14.693Z,11.00
2022-09-26T01:34:45.462Z,10.90
2022-09-26T01:37:15.413Z,10.90
2022-09-26T01:39:46.872Z,10.80
2022-09-26T01:42:19.166Z,10.80
2022-09-26T01:44:49.944Z,10.70
2022-09-26T01:47:23.083Z,10.70
2022-09-26T01:49:55.307Z,10.60
2022-09-26T01:52:27.789Z,10.60
2022-09-26T01:54:57.345Z,10.50
2022-09-26T01:57:30.500Z,10.50
2022-09-26T02:00:00.331Z,10.40
2022-09-26T02:02:31.187Z,10.40
2022-09-26T02:05:01.508Z,10.30
2022-09-26T02:07:32.524Z,10.30
2022-09-26T02:10:03.429Z,10.30
2022-09-26T02:12:34.146Z,10.30
2022-09-26T02:15:03.247Z,10.20
2022-09-26T02:17:34.648Z,10.20
2022-09-26T02:20:05.392Z,10.30
2022-09-26T02:22:34.771Z,10.20
2022-09-26T02:25:02.813Z,10.30
2022-09-26T02:27:30.880Z,10.30
2022-09-26T02:29:58.889Z,10.30
2022-09-26T02:32:30.803Z,10.20
2022-09-26T02:35:00.632Z,10.30
2022-09-26T02:37:32.581Z,10.30
2022-09-26T02:40:01.146Z,10.30
2022-09-26T02:42:34.172Z,10.40
2022-09-26T02:45:20.671Z,10.30
2022-09-26T02:48:18.325Z,10.40
2022-09-26T02:50:58.632Z,10.40
2022-09-26T02:53:38.809Z,10.40
2022-09-26T02:56:10.782Z,10.40
2022-09-26T02:58:44.597Z,10.40
2022-09-26T03:01:17.876Z,10.40
2022-09-26T03:03:51.141Z,10.50
2022-09-26T03:06:22.712Z,10.50
2022-09-26T03:08:50.773Z,10.50
2022-09-26T03:11:20.905Z,10.50
2022-09-26T03:13:49.046Z,10.50
2022-09-26T03:16:17.575Z,10.60
2022-09-26T03:18:49.010Z,10.60
2022-09-26T03:21:17.044Z,10.70
2022-09-26T03:23:46.949Z,10.60
2022-09-26T03:26:17.257Z,10.60
2022-09-26T03:28:56.282Z,10.60
2022-09-26T03:31:26.366Z,10.70
2022-09-26T03:34:01.084Z,10.70
2022-09-26T03:36:29.439Z,10.70
2022-09-26T03:38:58.852Z,10.60
2022-09-26T03:41:36.876Z,10.70
2022-09-26T03:44:19.897Z,10.70
2022-09-26T03:47:18.165Z,10.70
2022-09-26T03:49:49.949Z,10.70
2022-09-26T03:52:18.081Z,10.70
2022-09-26T03:54:47.874Z,10.70
2022-09-26T03:57:17.570Z,10.70
2022-09-26T04:00:01.095Z,10.70
2022-09-26T04:02:44.234Z,10.70
2022-09-26T04:05:24.674Z,10.70
2022-09-26T04:07:52.694Z,10.70
2022-09-26T04:10:22.810Z,10.70
2022-09-26T04:12:50.828Z,10.70
2022-09-26T04:15:19.058Z,10.70
2022-09-26T04:17:47.286Z,10.80
2022-09-26T04:20:15.521Z,10.80
2022-09-26T04:22:45.606Z,10.80
2022-09-26T04:25:13.588Z,10.80
2022-09-26T04:27:42.968Z,10.60
2022-09-26T04:30:12.972Z,10.50
2022-09-26T04:32:49.321Z,10.50
2022-09-26T04:35:35.105Z,10.60
2022-09-26T04:38:03.205Z,10.50
2022-09-26T04:40:34.091Z,10.60
2022-09-26T04:43:07.233Z,10.60
2022-09-26T04:45:35.353Z,10.60
2022-09-26T04:48:03.876Z,10.60
2022-09-26T04:50:56.888Z,10.70
2022-09-26T04:53:25.597Z,10.70
2022-09-26T04:56:09.468Z,10.70
2022-09-26T04:58:39.049Z,10.70
2022-09-26T05:01:08.105Z,10.70
2022-09-26T05:04:00.034Z,10.70
2022-09-26T05:06:29.367Z,10.70
2022-09-26T05:08:57.800Z,10.60
2022-09-26T05:11:44.532Z,10.60
2022-09-26T05:14:15.738Z,10.70
2022-09-26T05:16:43.824Z,10.70
2022-09-26T05:19:15.115Z,10.70
2022-09-26T05:22:01.849Z,10.70
2022-09-26T05:24:47.676Z,10.70
2022-09-26T05:27:18.440Z,10.70
2022-09-26T05:29:47.790Z,10.70
2022-09-26T05:32:19.232Z,10.70
2022-09-26T05:34:48.939Z,10.60
2022-09-26T05:37:19.149Z,10.60
2022-09-26T05:40:06.887Z,10.60
2022-09-26T05:42:38.700Z,10.70
2022-09-26T05:45:09.430Z,10.70
2022-09-26T05:47:37.563Z,10.70
2022-09-26T05:50:10.037Z,10.70
2022-09-26T05:52:39.741Z,10.70
2022-09-26T05:55:11.956Z,10.60
2022-09-26T05:57:59.485Z,10.60
2022-09-26T06:00:45.169Z,10.60
2022-09-26T06:03:13.258Z,10.60
2022-09-26T06:06:05.380Z,10.60
2022-09-26T06:08:35.122Z,10.60
2022-09-26T06:11:31.047Z,10.60
2022-09-26T06:14:00.748Z,10.60
2022-09-26T06:16:30.521Z,10.60
2022-09-26T06:19:02.668Z,10.60
2022-09-26T06:21:30.947Z,10.60
2022-09-26T06:24:06.737Z,10.60
2022-09-26T06:26:34.857Z,10.60
2022-09-26T06:29:03.533Z,10.70
2022-09-26T06:31:37.094Z,10.70
2022-09-26T06:34:12.933Z,10.70
2022-09-26T06:37:00.206Z,10.70
2022-09-26T06:39:35.550Z,10.70
2022-09-26T06:42:03.869Z,10.80
2022-09-26T06:44:36.874Z,10.80
2022-09-26T06:47:25.057Z,11.00
2022-09-26T06:50:11.678Z,11.10
2022-09-26T06:52:44.209Z,11.20
2022-09-26T06:55:13.371Z,11.40
2022-09-26T06:57:42.615Z,11.60
2022-09-26T07:00:12.002Z,11.90
2022-09-26T07:03:04.531Z,12.20
2022-09-26T07:05:56.970Z,12.50
2022-09-26T07:08:49.929Z,12.80
2022-09-26T07:11:35.261Z,13.00
2022-09-26T07:14:03.766Z,13.30
2022-09-26T07:16:32.079Z,13.60
2022-09-26T07:19:20.301Z,13.80
2022-09-26T07:22:07.456Z,13.80
2022-09-26T07:24:48.987Z,14.00
2022-09-26T07:27:17.919Z,14.00
2022-09-26T07:29:48.960Z,14.00
2022-09-26T07:32:19.662Z,14.00
2022-09-26T07:35:03.367Z,13.90
2022-09-26T07:37:31.438Z,13.90
2022-09-26T07:40:01.748Z,13.90
2022-09-26T07:42:31.287Z,14.10
2022-09-26T07:45:22.297Z,14.20
2022-09-26T07:48:01.564Z,14.50
2022-09-26T07:50:51.711Z,14.80
2022-09-26T07:53:25.945Z,15.20
2022-09-26T07:56:17.009Z,15.50
2022-09-26T07:59:03.766Z,15.80
2022-09-26T08:01:46.409Z,15.90
2022-09-26T08:04:32.245Z,15.80
2022-09-26T08:07:02.784Z,15.60
2022-09-26T08:09:32.136Z,15.80
2022-09-26T08:12:18.508Z,15.90
2022-09-26T08:15:02.117Z,16.00
2022-09-26T08:17:41.557Z,16.20
2022-09-26T08:20:10.267Z,16.20
2022-09-26T08:22:40.178Z,16.40
2022-09-26T08:25:10.090Z,16.50
2022-09-26T08:27:43.573Z,16.40
2022-09-26T08:30:12.830Z,16.60
2022-09-26T08:32:41.058Z,16.80
2022-09-26T08:35:12.206Z,16.70
2022-09-26T08:37:58.134Z,16.80
2022-09-26T08:40:47.547Z,16.70
2022-09-26T08:43:41.128Z,16.80
2022-09-26T08:46:37.686Z,16.80
2022-09-26T08:49:53.069Z,16.90
2022-09-26T08:52:31.577Z,16.80
2022-09-26T08:55:02.635Z,16.80
2022-09-26T08:57:35.258Z,17.00
2022-09-26T09:00:10.134Z,17.00
2022-09-26T09:02:40.645Z,17.80
2022-09-26T09:05:16.121Z,17.90
2022-09-26T09:07:47.705Z,17.50
2022-09-26T09:10:18.902Z,17.60
2022-09-26T09:13:02.788Z,17.50
2022-09-26T09:15:50.337Z,17.20
2022-09-26T09:18:54.582Z,17.30
2022-09-26T09:21:56.586Z,17.70
2022-09-26T09:24:43.068Z,18.30
2022-09-26T09:30:17.541Z,18.50
2022-09-26T09:33:06.506Z,18.40
2022-09-26T09:35:56.455Z,18.50
2022-09-26T09:38:43.749Z,18.60
2022-09-26T09:41:43.191Z,18.90
2022-09-26T09:44:18.976Z,18.80
2022-09-26T09:46:50.687Z,18.90
2022-09-26T09:49:20.695Z,18.70
2022-09-26T09:51:53.616Z,19.10
2022-09-26T09:54:31.465Z,19.60
2022-09-26T09:57:20.723Z,19.60
2022-09-26T09:59:58.227Z,19.40
2022-09-26T10:02:31.956Z,19.60
2022-09-26T10:05:06.268Z,19.60
2022-09-26T10:07:34.285Z,19.60
2022-09-26T10:10:28.848Z,19.40
2022-09-26T10:13:15.557Z,19.20
2022-09-26T10:16:16.108Z,19.60
2022-09-26T10:19:04.951Z,19.90
2022-09-26T10:21:35.175Z,19.80
2022-09-26T10:24:04.843Z,19.90
2022-09-26T10:26:47.343Z,20.30
2022-09-26T10:29:35.244Z,20.70
2022-09-26T10:32:04.981Z,20.30
2022-09-26T10:34:34.664Z,20.30
2022-09-26T10:37:19.620Z,20.80
2022-09-26T10:40:11.887Z,20.80
2022-09-26T10:42:41.211Z,20.50
2022-09-26T10:45:12.293Z,20.00
2022-09-26T10:48:13.732Z,19.80
2022-09-26T10:51:01.928Z,20.10
2022-09-26T10:53:37.204Z,20.40
2022-09-26T10:56:08.081Z,20.40
2022-09-26T10:58:40.141Z,20.80
2022-09-26T11:01:09.691Z,21.20
2022-09-26T11:03:44.172Z,20.80
2022-09-26T11:06:36.105Z,21.20
2022-09-26T11:09:21.519Z,21.30
2022-09-26T11:12:26.319Z,21.50
2022-09-26T11:14:58.019Z,21.70
2022-09-26T11:17:45.210Z,22.00
2022-09-26T11:20:34.608Z,22.30
2022-09-26T11:23:06.713Z,22.60
2022-09-26T11:25:43.356Z,22.90
2022-09-26T11:28:13.781Z,22.40
2022-09-26T11:31:05.575Z,21.80
2022-09-26T11:33:36.156Z,21.50
2022-09-26T11:36:45.312Z,21.00
2022-09-26T11:39:21.156Z,20.80
2022-09-26T11:41:57.196Z,20.40
2022-09-26T11:44:40.668Z,20.50
2022-09-26T11:47:51.809Z,20.70
2022-09-26T11:50:51.452Z,20.50
2022-09-26T11:53:42.789Z,20.10
2022-09-26T11:56:18.483Z,20.20
2022-09-26T11:58:49.033Z,20.00
2022-09-26T12:01:22.801Z,19.90
2022-09-26T12:04:18.984Z,20.00
2022-09-26T12:06:49.785Z,20.60
2022-09-26T12:09:47.386Z,20.60
2022-09-26T12:12:18.119Z,20.10
2022-09-26T12:14:54.265Z,20.50
2022-09-26T12:17:26.692Z,20.70
2022-09-26T12:19:58.673Z,20.80
2022-09-26T12:22:29.718Z,21.00
2022-09-26T12:25:07.984Z,21.00
2022-09-26T12:27:37.892Z,20.90
2022-09-26T12:30:07.517Z,20.90
2022-09-26T12:32:49.042Z,20.60
2022-09-26T12:35:31.489Z,20.30
2022-09-26T12:38:12.687Z,20.80
2022-09-26T12:40:45.897Z,20.90
2022-09-26T12:43:23.495Z,20.80
2022-09-26T12:46:04.551Z,20.90
2022-09-26T12:48:39.096Z,20.80
2022-09-26T12:51:19.877Z,20.50
2022-09-26T12:54:03.332Z,20.50
2022-09-26T12:56:42.116Z,20.10
2022-09-26T12:59:17.533Z,19.90
2022-09-26T13:01:52.027Z,19.70
2022-09-26T13:04:37.076Z,19.50
2022-09-26T13:07:20.933Z,19.60
2022-09-26T13:10:02.156Z,19.60
2022-09-26T13:12:40.726Z,19.50
2022-09-26T13:15:20.973Z,19.40
2022-09-26T13:17:50.301Z,19.50
2022-09-26T13:20:19.987Z,19.50
2022-09-26T13:22:50.230Z,19.40
2022-09-26T13:25:20.823Z,19.30
2022-09-26T13:27:54.632Z,19.20
2022-09-26T13:30:24.430Z,19.00
2022-09-26T13:32:57.068Z,18.90
2022-09-26T13:35:25.790Z,18.80
2022-09-26T13:38:05.069Z,18.80
2022-09-26T13:40:38.212Z,18.70
2022-09-26T13:43:14.527Z,18.80
2022-09-26T13:45:50.587Z,18.80
2022-09-26T13:48:23.196Z,18.90
2022-09-26T13:50:54.760Z,18.90
2022-09-26T13:53:27.014Z,18.90
2022-09-26T13:56:30.715Z,18.90
2022-09-26T13:59:06.872Z,19.00
2022-09-26T14:01:35.489Z,19.00
2022-09-26T14:04:18.857Z,19.10
2022-09-26T14:07:24.598Z,19.10
2022-09-26T14:09:55.154Z,19.10
2022-09-26T14:12:33.804Z,19.10
2022-09-26T14:15:17.195Z,19.10
2022-09-26T14:18:04.739Z,19.00
2022-09-26T14:20:34.597Z,19.10
2022-09-26T14:23:03.246Z,19.10
2022-09-26T14:25:57.828Z,19.10
2022-09-26T14:28:35.525Z,19.10
2022-09-26T14:31:44.797Z,19.10
2022-09-26T14:34:19.762Z,19.20
2022-09-26T14:36:47.965Z,19.10
2022-09-26T14:39:27.034Z,19.00
2022-09-26T14:41:55.107Z,18.90
2022-09-26T14:44:23.106Z,18.90
2022-09-26T14:46:54.293Z,18.80
2022-09-26T14:49:23.744Z,18.60
2022-09-26T14:51:51.981Z,18.60
2022-09-26T14:54:22.507Z,18.50
2022-09-26T14:56:51.134Z,18.20
2022-09-26T14:59:40.064Z,18.30
2022-09-26T15:02:28.964Z,18.30
2022-09-26T15:05:05.904Z,18.20
2022-09-26T15:07:36.125Z,18.20
2022-09-26T15:10:06.959Z,18.20
2022-09-26T15:12:44.146Z,18.00
2022-09-26T15:15:20.062Z,18.00
2022-09-26T15:17:52.735Z,17.90
2022-09-26T15:20:21.355Z,17.80
2022-09-26T15:22:50.087Z,17.70
2022-09-26T15:25:22.705Z,17.70
2022-09-26T15:27:51.789Z,17.60
2022-09-26T15:30:22.495Z,17.40
2022-09-26T15:32:51.909Z,17.40
2022-09-26T15:35:19.897Z,17.30
2022-09-26T15:37:47.873Z,17.20
2022-09-26T15:40:17.988Z,17.10
2022-09-26T15:43:01.797Z,17.00
2022-09-26T15:45:33.247Z,17.00
2022-09-26T15:48:04.133Z,16.90
2022-09-26T15:50:39.757Z,16.80
2022-09-26T15:53:09.872Z,16.80
2022-09-26T15:55:46.616Z,16.70
2022-09-26T15:58:16.299Z,16.50
2022-09-26T16:00:47.311Z,16.50
2022-09-26T16:03:36.916Z,16.50
2022-09-26T16:06:09.026Z,16.40
2022-09-26T16:08:39.660Z,16.30
2022-09-26T16:11:08.399Z,16.30
2022-09-26T16:13:38.410Z,16.20
2022-09-26T16:16:07.954Z,16.20
2022-09-26T16:18:39.906Z,16.10
2022-09-26T16:21:16.462Z,16.00
2022-09-26T16:23:47.885Z,16.00
2022-09-26T16:26:30.133Z,15.90
2022-09-26T16:28:58.750Z,15.90
2022-09-26T16:31:29.145Z,15.80
2022-09-26T16:33:58.959Z,15.70
2022-09-26T16:36:28.170Z,15.70
2022-09-26T16:39:00.103Z,15.70
2022-09-26T16:44:27.591Z,15.60
2022-09-26T16:47:01.627Z,15.60
2022-09-26T16:49:34.602Z,15.50
2022-09-26T16:52:28.181Z,15.40
2022-09-26T16:54:56.632Z,15.30
2022-09-26T16:57:25.731Z,15.30
2022-09-26T17:00:13.777Z,15.20
2022-09-26T17:02:41.092Z,15.10
2022-09-26T17:05:18.579Z,15.10
2022-09-26T17:07:47.035Z,15.00
2022-09-26T17:10:15.232Z,14.90
2022-09-26T17:12:43.264Z,14.90
2022-09-26T17:15:17.413Z,14.90
2022-09-26T17:17:45.442Z,14.90
2022-09-26T17:20:15.761Z,14.90
2022-09-26T17:22:43.760Z,14.80
2022-09-26T17:25:13.037Z,14.80
2022-09-26T17:27:41.172Z,14.80
2022-09-26T17:30:12.118Z,14.70
2022-09-26T17:32:40.877Z,14.70
2022-09-26T17:35:13.142Z,14.70
2022-09-26T17:37:42.528Z,14.70
2022-09-26T17:40:13.804Z,14.70
2022-09-26T17:42:41.937Z,14.70
2022-09-26T17:45:10.297Z,14.60
2022-09-26T17:47:38.332Z,14.60
2022-09-26T17:50:07.240Z,14.60
2022-09-26T17:52:37.069Z,14.60
2022-09-26T17:55:07.926Z,14.60
2022-09-26T17:57:41.623Z,14.60
2022-09-26T18:00:15.471Z,14.50
2022-09-26T18:02:44.639Z,14.50
2022-09-26T18:05:18.970Z,14.50
2022-09-26T18:07:47.242Z,14.50
2022-09-26T18:10:20.365Z,14.50
2022-09-26T18:12:48.509Z,14.50
2022-09-26T18:15:19.562Z,14.50
2022-09-26T18:17:47.611Z,14.40
2022-09-26T18:20:16.088Z,14.40
2022-09-26T18:22:44.106Z,14.40
2022-09-26T18:25:18.964Z,14.40
2022-09-26T18:27:48.591Z,14.40
2022-09-26T18:30:17.580Z,14.40
2022-09-26T18:32:46.056Z,14.40
2022-09-26T18:35:16.003Z,14.30
2022-09-26T18:37:44.335Z,14.20
2022-09-26T18:40:14.856Z,14.20
2022-09-26T18:42:44.459Z,14.20
2022-09-26T18:45:14.771Z,14.20
2022-09-26T18:47:44.690Z,14.20
2022-09-26T18:50:20.794Z,14.20
2022-09-26T18:52:48.932Z,14.10
2022-09-26T18:55:37.156Z,14.10
2022-09-26T18:58:22.545Z,14.00
2022-09-26T19:00:54.497Z,13.90
2022-09-26T19:03:22.675Z,13.90
2022-09-26T19:05:50.833Z,13.90
2022-09-26T19:08:28.286Z,13.90
2022-09-26T19:10:56.312Z,13.80
2022-09-26T19:13:27.584Z,13.80
2022-09-26T19:15:57.115Z,13.90
2022-09-26T19:18:25.202Z,13.90
2022-09-26T19:20:53.596Z,13.90
2022-09-26T19:23:21.597Z,13.90
2022-09-26T19:25:49.564Z,13.80
2022-09-26T19:28:21.033Z,13.80
2022-09-26T19:30:49.067Z,13.80
2022-09-26T19:33:18.448Z,13.70
2022-09-26T19:35:47.217Z,13.80
2022-09-26T19:38:20.096Z,13.70
2022-09-26T19:40:49.222Z,13.60
2022-09-26T19:43:17.375Z,13.70
2022-09-26T19:45:45.479Z,13.60
2022-09-26T19:48:15.457Z,13.60
2022-09-26T19:50:44.880Z,13.50
2022-09-26T19:53:14.849Z,13.50
2022-09-26T19:55:43.379Z,13.50
2022-09-26T19:58:13.752Z,13.60
2022-09-26T20:00:44.740Z,13.50
2022-09-26T20:03:17.834Z,13.40
2022-09-26T20:05:47.730Z,13.50
2022-09-26T20:08:17.005Z,13.50
2022-09-26T20:10:45.100Z,13.60
2022-09-26T20:13:13.083Z,13.60
2022-09-26T20:15:41.096Z,13.60
2022-09-26T20:18:09.256Z,13.60
2022-09-26T20:20:38.253Z,13.60
2022-09-26T20:23:10.717Z,13.50
2022-09-26T20:25:38.725Z,13.50
2022-09-26T20:28:06.728Z,13.40
2022-09-26T20:30:52.911Z,13.40
2022-09-26T20:33:22.364Z,13.40
2022-09-26T20:35:52.273Z,13.40
2022-09-26T20:38:25.974Z,13.30
2022-09-26T20:40:56.721Z,13.30
2022-09-26T20:43:27.305Z,13.30
2022-09-26T20:45:55.319Z,13.30
2022-09-26T20:48:24.069Z,13.40
2022-09-26T20:50:52.868Z,13.40
2022-09-26T20:53:23.641Z,13.40
2022-09-26T20:55:53.077Z,13.40
2022-09-26T20:58:21.082Z,13.40
2022-09-26T21:00:49.062Z,13.40
2022-09-26T21:03:19.688Z,13.40
2022-09-26T21:05:48.000Z,13.40
2022-09-26T21:08:19.791Z,13.40
2022-09-26T21:10:49.113Z,13.40
2022-09-26T21:13:17.094Z,13.40
2022-09-26T21:15:45.100Z,13.50
2022-09-26T21:18:21.629Z,13.40
2022-09-26T21:20:49.608Z,13.40
2022-09-26T21:23:37.901Z,13.40
2022-09-26T21:26:07.383Z,13.40
2022-09-26T21:28:35.458Z,13.40
2022-09-26T21:31:04.163Z,13.40
2022-09-26T21:33:32.228Z,13.40
2022-09-26T21:36:00.410Z,13.40
2022-09-26T21:38:28.422Z,13.40
2022-09-26T21:40:58.255Z,13.50
2022-09-26T21:43:30.283Z,13.50
2022-09-26T21:45:58.306Z,13.50
2022-09-26T21:48:26.341Z,13.50
2022-09-26T21:50:58.206Z,13.40
2022-09-26T21:53:28.514Z,13.50
2022-09-26T21:55:57.576Z,13.50
2022-09-26T21:58:28.785Z,13.50
2022-09-26T22:00:57.763Z,13.40
2022-09-26T22:03:25.816Z,13.50
2022-09-26T22:05:53.781Z,13.40
2022-09-26T22:08:21.782Z,13.40
2022-09-26T22:10:50.066Z,13.40
2022-09-26T22:13:18.069Z,13.40
2022-09-26T22:15:48.834Z,13.30
2022-09-26T22:18:16.835Z,13.30
2022-09-26T22:20:44.814Z,13.30
2022-09-26T22:23:12.816Z,13.30
2022-09-26T22:25:42.960Z,13.30
2022-09-26T22:28:11.133Z,13.30
2022-09-26T22:30:40.306Z,13.30
2022-09-26T22:33:10.104Z,13.30
2022-09-26T22:35:38.063Z,13.30
2022-09-26T22:38:06.058Z,13.20
2022-09-26T22:40:34.059Z,13.20
2022-09-26T22:43:02.084Z,13.20
2022-09-26T22:45:30.062Z,13.20
2022-09-26T22:47:58.108Z,13.20
2022-09-26T22:50:27.460Z,13.20
2022-09-26T22:52:55.458Z,13.20
2022-09-26T22:55:23.433Z,13.20
2022-09-26T22:57:52.077Z,13.20
2022-09-26T23:00:20.210Z,13.10
2022-09-26T23:02:48.305Z,13.10
2022-09-26T23:05:16.466Z,13.10
2022-09-26T23:07:45.847Z,13.10
2022-09-26T23:10:14.169Z,13.10
2022-09-26T23:12:42.205Z,13.10
2022-09-26T23:15:11.085Z,13.10
2022-09-26T23:17:39.194Z,13.10
2022-09-26T23:20:08.262Z,13.00
2022-09-26T23:22:36.296Z,13.00
2022-09-26T23:25:06.310Z,13.00
2022-09-26T23:27:34.342Z,13.00
2022-09-26T23:30:02.367Z,12.90
2022-09-26T23:32:30.399Z,12.90
2022-09-26T23:34:58.409Z,12.90
2022-09-26T23:37:27.024Z,12.90
2022-09-26T23:39:55.390Z,12.90
2022-09-26T23:42:24.785Z,12.90
2022-09-26T23:44:52.781Z,12.80
2022-09-26T23:47:20.809Z,12.80
2022-09-26T23:49:48.801Z,12.80
2022-09-26T23:52:16.820Z,12.70
2022-09-26T23:54:44.846Z,12.70
2022-09-26T23:57:12.888Z,12.70
2022-09-26T23:59:42.245Z,12.70
